Search for airport 
image banner adimage banner ad
image banner ad

SVRC - Refineria

Located in Carirubana, Venezuela

ICAO - SVRC, IATA -

Data provided by Airmate  

General information

Coordinates: N11°38'59" W70°11'40"
Elevation is 328 feet MSL.
 
Rated:
View ratings: [VIEW]


View others Airports in Falcon

Operational data

Open for public use
Current time UTC:
Current local time:
TAF: TAF SVJC 211000Z 2112/2212 07005KT 9999 BNK016 TX32/17Z TN23/08Z BECMG 2112/2116 11005KT 9999 BKN16
View NOTAMs / SUP AIP / TFR affecting this airport [VIEW]
Communications frequencies: [VIEW]

Runways:

Airport contact information

Address: Carirubana Venezuela

Satellite view of SVRC